TimeMST,TemperatureF,Dew PointF,Humidity,Sea Level PressureIn,VisibilityMPH,Wind Direction,Wind SpeedMPH,Gust SpeedMPH,PrecipitationIn,Events,Conditions,WindDirDegrees,DateUTC
12:00 AM,24.8,21.2,86,29.79,4.0,SW,8.1,-,0.00,Snow,Light Snow,220,2012-12-08 07:00:00
12:11 AM,23.0,21.2,93,29.79,2.0,SW,6.9,-,0.00,Snow,Light Snow,220,2012-12-08 07:11:00
12:53 AM,24.1,21.0,88,29.77,2.0,SSW,9.2,-,0.00,Snow,Light Snow,210,2012-12-08 07:53:00
1:04 AM,24.8,21.2,86,29.75,4.0,SW,9.2,-,0.00,Snow,Light Snow,220,2012-12-08 08:04:00
1:34 AM,24.8,21.2,86,29.73,2.5,SW,9.2,-,0.00,Snow,Light Snow,220,2012-12-08 08:34:00
1:39 AM,24.8,21.2,86,29.73,3.0,SW,10.4,-,0.00,Snow,Light Snow,220,2012-12-08 08:39:00
1:51 AM,24.8,21.2,86,29.72,2.5,SW,11.5,-,0.00,Snow,Light Snow,230,2012-12-08 08:51:00
1:53 AM,25.0,21.9,88,29.73,2.5,SW,10.4,-,0.00,Snow,Light Snow,230,2012-12-08 08:53:00
2:07 AM,24.8,21.2,86,29.72,1.5,WSW,9.2,-,0.00,Snow,Light Snow,250,2012-12-08 09:07:00
2:41 AM,24.8,21.2,86,29.73,0.8,West,15.0,-,0.00,Snow,Light Snow,280,2012-12-08 09:41:00
2:53 AM,25.0,23.0,92,29.73,0.5,West,12.7,-,0.00,Fog-Snow,Snow,270,2012-12-08 09:53:00
3:07 AM,24.8,21.2,86,29.72,1.0,West,12.7,-,0.00,Snow,Light Snow,270,2012-12-08 10:07:00
3:18 AM,24.8,21.2,86,29.72,0.5,West,17.3,23.0,0.00,Fog-Snow,Snow,280,2012-12-08 10:18:00
3:34 AM,24.8,21.2,86,29.71,1.5,WNW,9.2,-,0.00,Snow,Light Snow,300,2012-12-08 10:34:00
3:47 AM,24.8,21.2,86,29.71,3.0,NW,8.1,-,0.00,Snow,Light Snow,310,2012-12-08 10:47:00
3:48 AM,24.8,21.2,86,29.72,3.0,NW,9.2,-,0.00,Snow,Light Snow,310,2012-12-08 10:48:00
3:53 AM,24.8,21.2,86,29.72,4.0,WNW,8.1,-,N/A,Snow,Light Snow,300,2012-12-08 10:53:00
4:53 AM,23.0,19.9,88,29.77,4.0,West,9.2,-,0.00,Snow,Light Snow,270,2012-12-08 11:53:00
5:21 AM,23.0,17.6,80,29.72,1.8,WNW,12.7,-,0.00,Snow,Light Snow,290,2012-12-08 12:21:00
5:37 AM,21.2,19.4,93,29.71,0.8,WNW,10.4,-,0.00,Snow,Light Snow,290,2012-12-08 12:37:00
5:45 AM,21.2,19.4,93,29.71,1.2,West,8.1,-,0.00,Snow,Light Snow,280,2012-12-08 12:45:00
5:53 AM,21.9,19.0,89,29.77,2.0,West,9.2,-,0.00,Snow,Light Snow,270,2012-12-08 12:53:00
6:25 AM,21.2,17.6,86,29.70,4.0,West,10.4,-,0.00,Snow,Light Snow,260,2012-12-08 13:25:00
6:48 AM,21.2,17.6,86,29.69,2.0,West,12.7,-,0.00,Snow,Light Snow,270,2012-12-08 13:48:00
6:53 AM,21.9,18.0,85,29.74,2.5,West,11.5,-,0.00,Snow,Light Snow,270,2012-12-08 13:53:00
7:10 AM,21.2,17.6,86,29.68,3.0,West,9.2,-,0.00,Snow,Light Snow,280,2012-12-08 14:10:00
7:53 AM,21.0,17.1,85,29.74,10.0,WSW,6.9,-,0.00,,Overcast,240,2012-12-08 14:53:00
8:53 AM,23.0,16.0,74,29.74,9.0,WNW,12.7,17.3,0.00,,Overcast,290,2012-12-08 15:53:00
9:14 AM,19.4,15.8,86,29.72,1.2,North,25.3,31.1,0.00,Snow,Light Snow,10,2012-12-08 16:14:00
9:18 AM,17.6,12.2,79,29.72,0.5,North,26.5,35.7,0.00,Snow,Snow,10,2012-12-08 16:18:00
9:35 AM,15.8,12.2,86,29.73,0.2,North,29.9,39.1,0.00,Fog,Light Freezing Fog,360,2012-12-08 16:35:00
9:46 AM,15.8,10.4,79,29.74,1.8,North,25.3,35.7,0.00,Snow,Light Snow,360,2012-12-08 16:46:00
9:51 AM,15.8,10.4,79,29.74,3.0,North,26.5,35.7,0.00,Snow,Light Snow,360,2012-12-08 16:51:00
9:53 AM,17.1,10.9,77,29.83,3.0,North,29.9,38.0,0.00,Snow,Light Snow,360,2012-12-08 16:53:00
10:05 AM,15.8,10.4,79,29.76,2.5,North,24.2,38.0,0.00,Snow,Light Snow,360,2012-12-08 17:05:00
10:15 AM,15.8,10.4,79,29.77,1.5,North,21.9,35.7,0.00,Snow,Light Snow,360,2012-12-08 17:15:00
10:31 AM,17.6,10.4,73,29.78,3.0,North,23.0,27.6,0.00,Snow,Light Snow,360,2012-12-08 17:31:00
10:53 AM,17.1,6.1,62,29.89,10.0,NNW,25.3,31.1,0.00,,Mostly Cloudy,340,2012-12-08 17:53:00
11:53 AM,19.0,3.9,52,29.88,10.0,North,21.9,27.6,N/A,,Mostly Cloudy,350,2012-12-08 18:53:00
12:53 PM,19.0,3.0,50,29.89,10.0,NNW,19.6,-,N/A,,Mostly Cloudy,340,2012-12-08 19:53:00
1:53 PM,18.0,5.0,57,29.91,10.0,NNW,15.0,-,N/A,,Mostly Cloudy,340,2012-12-08 20:53:00
2:53 PM,17.1,3.9,56,29.94,10.0,NNW,18.4,25.3,N/A,,Clear,340,2012-12-08 21:53:00
3:53 PM,16.0,1.9,54,29.98,10.0,North,8.1,-,N/A,,Clear,350,2012-12-08 22:53:00
4:53 PM,3.9,-2.9,73,30.05,10.0,NNW,6.9,-,N/A,,Clear,330,2012-12-08 23:53:00
5:53 PM,5.0,-5.1,63,30.07,10.0,North,11.5,-,N/A,,Clear,10,2012-12-09 00:53:00
6:53 PM,3.9,-6.0,64,30.09,10.0,NW,10.4,-,N/A,,Clear,320,2012-12-09 01:53:00
7:53 PM,-0.0,-8.0,69,30.12,10.0,Variable,5.8,-,N/A,,Clear,0,2012-12-09 02:53:00
8:53 PM,-4.0,-11.9,69,30.14,10.0,North,5.8,-,N/A,,Clear,350,2012-12-09 03:53:00
9:53 PM,-4.0,-11.9,69,30.18,10.0,NNW,3.5,-,N/A,,Clear,340,2012-12-09 04:53:00
10:53 PM,-2.0,-11.0,66,30.19,10.0,NW,3.5,-,N/A,,Clear,320,2012-12-09 05:53:00
11:53 PM,-6.0,-13.0,72,30.21,10.0,ENE,4.6,-,N/A,,Partly Cloudy,60,2012-12-09 06:53:00